sensor_id;sensor_type;location;lat;lon;timestamp;P1;durP1;ratioP1;P2;durP2;ratioP2
70148;SDS011;57514;52.164;5.282;2023-08-21T00:01:48;9.23;;;2.60;;
70148;SDS011;57514;52.164;5.282;2023-08-21T00:04:15;7.00;;;2.20;;
70148;SDS011;57514;52.164;5.282;2023-08-21T00:06:43;7.78;;;2.30;;
70148;SDS011;57514;52.164;5.282;2023-08-21T00:09:10;6.47;;;2.30;;
70148;SDS011;57514;52.164;5.282;2023-08-21T00:11:37;9.38;;;2.17;;
70148;SDS011;57514;52.164;5.282;2023-08-21T00:14:05;6.32;;;2.22;;
70148;SDS011;57514;52.164;5.282;2023-08-21T00:16:32;5.22;;;2.20;;
70148;SDS011;57514;52.164;5.282;2023-08-21T00:19:01;6.47;;;2.20;;
70148;SDS011;57514;52.164;5.282;2023-08-21T00:21:28;9.38;;;2.33;;
70148;SDS011;57514;52.164;5.282;2023-08-21T00:23:56;8.07;;;2.40;;
70148;SDS011;57514;52.164;5.282;2023-08-21T00:26:23;6.63;;;2.00;;
70148;SDS011;57514;52.164;5.282;2023-08-21T00:28:50;6.40;;;2.03;;
70148;SDS011;57514;52.164;5.282;2023-08-21T00:31:17;6.18;;;2.20;;
70148;SDS011;57514;52.164;5.282;2023-08-21T00:33:45;5.70;;;1.95;;
70148;SDS011;57514;52.164;5.282;2023-08-21T00:36:12;7.28;;;2.22;;
70148;SDS011;57514;52.164;5.282;2023-08-21T00:38:39;5.55;;;2.13;;
70148;SDS011;57514;52.164;5.282;2023-08-21T00:41:06;4.32;;;2.13;;
70148;SDS011;57514;52.164;5.282;2023-08-21T00:43:34;5.88;;;2.10;;
70148;SDS011;57514;52.164;5.282;2023-08-21T00:46:01;9.88;;;2.40;;
70148;SDS011;57514;52.164;5.282;2023-08-21T00:48:29;6.07;;;2.17;;
70148;SDS011;57514;52.164;5.282;2023-08-21T00:50:56;6.30;;;2.20;;
70148;SDS011;57514;52.164;5.282;2023-08-21T00:53:24;9.60;;;2.40;;
70148;SDS011;57514;52.164;5.282;2023-08-21T00:55:51;9.32;;;2.30;;
70148;SDS011;57514;52.164;5.282;2023-08-21T00:58:19;5.70;;;2.22;;
70148;SDS011;57514;52.164;5.282;2023-08-21T01:00:46;4.43;;;2.17;;
70148;SDS011;57514;52.164;5.282;2023-08-21T01:03:16;5.80;;;2.20;;
70148;SDS011;57514;52.164;5.282;2023-08-21T01:05:43;8.85;;;2.38;;
70148;SDS011;57514;52.164;5.282;2023-08-21T01:08:13;7.53;;;2.25;;
70148;SDS011;57514;52.164;5.282;2023-08-21T01:13:19;6.78;;;2.08;;
70148;SDS011;57514;52.164;5.282;2023-08-21T01:15:49;8.85;;;2.13;;
70148;SDS011;57514;52.164;5.282;2023-08-21T01:18:18;6.25;;;1.92;;
70148;SDS011;57514;52.164;5.282;2023-08-21T01:20:45;7.97;;;2.33;;
70148;SDS011;57514;52.164;5.282;2023-08-21T01:25:55;6.30;;;2.20;;
70148;SDS011;57514;52.164;5.282;2023-08-21T01:28:22;7.22;;;2.50;;
70148;SDS011;57514;52.164;5.282;2023-08-21T01:30:51;5.95;;;2.13;;
70148;SDS011;57514;52.164;5.282;2023-08-21T01:33:27;7.28;;;2.35;;
70148;SDS011;57514;52.164;5.282;2023-08-21T01:35:57;7.65;;;2.17;;
70148;SDS011;57514;52.164;5.282;2023-08-21T01:38:25;7.95;;;2.13;;
70148;SDS011;57514;52.164;5.282;2023-08-21T01:40:53;6.03;;;1.90;;
70148;SDS011;57514;52.164;5.282;2023-08-21T01:43:20;5.53;;;2.10;;
70148;SDS011;57514;52.164;5.282;2023-08-21T01:45:48;7.07;;;2.65;;
70148;SDS011;57514;52.164;5.282;2023-08-21T01:48:16;8.10;;;2.30;;
70148;SDS011;57514;52.164;5.282;2023-08-21T01:50:43;6.22;;;1.98;;
70148;SDS011;57514;52.164;5.282;2023-08-21T01:53:11;5.95;;;2.05;;
70148;SDS011;57514;52.164;5.282;2023-08-21T01:55:38;4.32;;;2.10;;
70148;SDS011;57514;52.164;5.282;2023-08-21T01:58:05;5.00;;;1.80;;
70148;SDS011;57514;52.164;5.282;2023-08-21T02:00:32;5.00;;;2.03;;
70148;SDS011;57514;52.164;5.282;2023-08-21T02:03:00;4.32;;;1.88;;
70148;SDS011;57514;52.164;5.282;2023-08-21T02:05:27;5.93;;;2.00;;
70148;SDS011;57514;52.164;5.282;2023-08-21T02:07:55;9.30;;;2.35;;
70148;SDS011;57514;52.164;5.282;2023-08-21T02:10:22;5.60;;;2.03;;
70148;SDS011;57514;52.164;5.282;2023-08-21T02:12:49;9.98;;;2.30;;
70148;SDS011;57514;52.164;5.282;2023-08-21T02:15:18;6.88;;;1.95;;
70148;SDS011;57514;52.164;5.282;2023-08-21T02:17:48;7.18;;;2.10;;
70148;SDS011;57514;52.164;5.282;2023-08-21T02:20:15;4.68;;;2.15;;
70148;SDS011;57514;52.164;5.282;2023-08-21T02:22:44;7.60;;;2.28;;
70148;SDS011;57514;52.164;5.282;2023-08-21T02:25:11;6.22;;;2.00;;
70148;SDS011;57514;52.164;5.282;2023-08-21T02:27:40;5.07;;;2.28;;
70148;SDS011;57514;52.164;5.282;2023-08-21T02:30:07;7.72;;;2.30;;
70148;SDS011;57514;52.164;5.282;2023-08-21T02:32:34;6.82;;;2.13;;
70148;SDS011;57514;52.164;5.282;2023-08-21T02:35:02;5.57;;;2.20;;
70148;SDS011;57514;52.164;5.282;2023-08-21T02:37:29;5.93;;;2.20;;
70148;SDS011;57514;52.164;5.282;2023-08-21T02:39:57;6.28;;;2.00;;
70148;SDS011;57514;52.164;5.282;2023-08-21T02:42:25;5.43;;;2.20;;
70148;SDS011;57514;52.164;5.282;2023-08-21T02:44:53;6.68;;;2.10;;
70148;SDS011;57514;52.164;5.282;2023-08-21T02:47:20;7.95;;;2.25;;
70148;SDS011;57514;52.164;5.282;2023-08-21T02:49:47;4.88;;;2.28;;
70148;SDS011;57514;52.164;5.282;2023-08-21T02:52:14;4.97;;;2.05;;
70148;SDS011;57514;52.164;5.282;2023-08-21T02:54:42;9.20;;;2.33;;
70148;SDS011;57514;52.164;5.282;2023-08-21T02:57:09;4.38;;;2.13;;
70148;SDS011;57514;52.164;5.282;2023-08-21T02:59:36;7.65;;;2.20;;
70148;SDS011;57514;52.164;5.282;2023-08-21T03:02:04;9.57;;;2.33;;
70148;SDS011;57514;52.164;5.282;2023-08-21T03:04:31;7.70;;;2.50;;
70148;SDS011;57514;52.164;5.282;2023-08-21T03:06:58;7.22;;;2.50;;
70148;SDS011;57514;52.164;5.282;2023-08-21T03:09:25;4.82;;;2.10;;
70148;SDS011;57514;52.164;5.282;2023-08-21T03:11:53;6.85;;;2.08;;
70148;SDS011;57514;52.164;5.282;2023-08-21T03:14:20;7.05;;;2.42;;
70148;SDS011;57514;52.164;5.282;2023-08-21T03:16:47;6.22;;;1.98;;
70148;SDS011;57514;52.164;5.282;2023-08-21T03:19:15;9.15;;;2.20;;
70148;SDS011;57514;52.164;5.282;2023-08-21T03:21:42;8.65;;;2.45;;
70148;SDS011;57514;52.164;5.282;2023-08-21T03:24:09;5.82;;;2.10;;
70148;SDS011;57514;52.164;5.282;2023-08-21T03:26:37;4.72;;;2.00;;
70148;SDS011;57514;52.164;5.282;2023-08-21T03:29:04;8.05;;;2.20;;
70148;SDS011;57514;52.164;5.282;2023-08-21T03:31:32;5.78;;;2.05;;
70148;SDS011;57514;52.164;5.282;2023-08-21T03:33:59;8.25;;;2.20;;
70148;SDS011;57514;52.164;5.282;2023-08-21T03:36:27;8.35;;;2.63;;
70148;SDS011;57514;52.164;5.282;2023-08-21T03:39:00;4.85;;;2.20;;
70148;SDS011;57514;52.164;5.282;2023-08-21T03:41:29;5.18;;;2.20;;
70148;SDS011;57514;52.164;5.282;2023-08-21T03:43:57;5.45;;;2.40;;
70148;SDS011;57514;52.164;5.282;2023-08-21T03:46:24;6.43;;;2.22;;
70148;SDS011;57514;52.164;5.282;2023-08-21T03:48:54;5.57;;;2.10;;
70148;SDS011;57514;52.164;5.282;2023-08-21T03:51:21;7.47;;;2.17;;
70148;SDS011;57514;52.164;5.282;2023-08-21T03:53:49;5.95;;;2.22;;
70148;SDS011;57514;52.164;5.282;2023-08-21T03:56:17;5.15;;;2.10;;
70148;SDS011;57514;52.164;5.282;2023-08-21T03:58:45;7.60;;;2.05;;
70148;SDS011;57514;52.164;5.282;2023-08-21T04:01:14;7.38;;;2.67;;
70148;SDS011;57514;52.164;5.282;2023-08-21T04:03:42;7.45;;;2.35;;
70148;SDS011;57514;52.164;5.282;2023-08-21T04:06:11;4.40;;;1.90;;
70148;SDS011;57514;52.164;5.282;2023-08-21T04:08:38;6.00;;;2.20;;
70148;SDS011;57514;52.164;5.282;2023-08-21T04:11:05;7.93;;;2.70;;
70148;SDS011;57514;52.164;5.282;2023-08-21T04:13:33;6.95;;;2.30;;
70148;SDS011;57514;52.164;5.282;2023-08-21T04:16:00;5.32;;;2.20;;
70148;SDS011;57514;52.164;5.282;2023-08-21T04:18:27;5.53;;;2.13;;
70148;SDS011;57514;52.164;5.282;2023-08-21T04:21:07;6.53;;;2.40;;
70148;SDS011;57514;52.164;5.282;2023-08-21T04:23:34;5.40;;;2.00;;
70148;SDS011;57514;52.164;5.282;2023-08-21T04:26:02;5.22;;;2.10;;
70148;SDS011;57514;52.164;5.282;2023-08-21T04:28:30;5.60;;;1.88;;
70148;SDS011;57514;52.164;5.282;2023-08-21T04:30:57;3.47;;;2.00;;
70148;SDS011;57514;52.164;5.282;2023-08-21T04:33:25;6.78;;;2.22;;
70148;SDS011;57514;52.164;5.282;2023-08-21T04:35:53;3.90;;;2.00;;
70148;SDS011;57514;52.164;5.282;2023-08-21T04:38:20;5.30;;;2.38;;
70148;SDS011;57514;52.164;5.282;2023-08-21T04:40:47;5.72;;;2.03;;
70148;SDS011;57514;52.164;5.282;2023-08-21T04:43:15;4.78;;;2.15;;
70148;SDS011;57514;52.164;5.282;2023-08-21T04:45:49;5.93;;;2.35;;
70148;SDS011;57514;52.164;5.282;2023-08-21T04:48:17;7.53;;;2.25;;
70148;SDS011;57514;52.164;5.282;2023-08-21T04:50:47;7.00;;;2.25;;
70148;SDS011;57514;52.164;5.282;2023-08-21T04:53:14;8.15;;;2.63;;
70148;SDS011;57514;52.164;5.282;2023-08-21T04:55:41;10.38;;;2.67;;
70148;SDS011;57514;52.164;5.282;2023-08-21T04:58:09;6.15;;;2.33;;
70148;SDS011;57514;52.164;5.282;2023-08-21T05:00:36;5.30;;;2.30;;
70148;SDS011;57514;52.164;5.282;2023-08-21T05:03:05;8.07;;;2.45;;
70148;SDS011;57514;52.164;5.282;2023-08-21T05:05:32;8.20;;;2.40;;
70148;SDS011;57514;52.164;5.282;2023-08-21T05:08:00;7.03;;;2.25;;
70148;SDS011;57514;52.164;5.282;2023-08-21T05:10:27;6.05;;;2.10;;
70148;SDS011;57514;52.164;5.282;2023-08-21T05:12:56;6.47;;;2.47;;
70148;SDS011;57514;52.164;5.282;2023-08-21T05:15:24;8.68;;;2.40;;
70148;SDS011;57514;52.164;5.282;2023-08-21T05:17:51;9.10;;;2.80;;
70148;SDS011;57514;52.164;5.282;2023-08-21T05:20:20;5.40;;;2.22;;
70148;SDS011;57514;52.164;5.282;2023-08-21T05:22:47;5.50;;;2.45;;
70148;SDS011;57514;52.164;5.282;2023-08-21T05:25:15;6.53;;;2.40;;
70148;SDS011;57514;52.164;5.282;2023-08-21T05:27:42;7.65;;;2.42;;
70148;SDS011;57514;52.164;5.282;2023-08-21T05:30:10;8.27;;;2.20;;
70148;SDS011;57514;52.164;5.282;2023-08-21T05:32:39;7.45;;;2.30;;
70148;SDS011;57514;52.164;5.282;2023-08-21T05:35:07;5.88;;;2.22;;
70148;SDS011;57514;52.164;5.282;2023-08-21T05:37:34;6.15;;;2.50;;
70148;SDS011;57514;52.164;5.282;2023-08-21T05:40:02;5.60;;;2.42;;
70148;SDS011;57514;52.164;5.282;2023-08-21T05:42:30;6.93;;;2.05;;
70148;SDS011;57514;52.164;5.282;2023-08-21T05:44:57;7.80;;;2.47;;
70148;SDS011;57514;52.164;5.282;2023-08-21T05:47:27;7.03;;;2.20;;
70148;SDS011;57514;52.164;5.282;2023-08-21T05:49:54;7.82;;;2.10;;
70148;SDS011;57514;52.164;5.282;2023-08-21T05:52:22;7.72;;;2.20;;
70148;SDS011;57514;52.164;5.282;2023-08-21T05:54:49;5.85;;;2.20;;
70148;SDS011;57514;52.164;5.282;2023-08-21T05:57:16;6.05;;;2.60;;
70148;SDS011;57514;52.164;5.282;2023-08-21T05:59:45;6.72;;;2.05;;
70148;SDS011;57514;52.164;5.282;2023-08-21T06:02:13;5.00;;;2.30;;
70148;SDS011;57514;52.164;5.282;2023-08-21T06:04:41;6.68;;;2.50;;
70148;SDS011;57514;52.164;5.282;2023-08-21T06:07:09;7.35;;;2.40;;
70148;SDS011;57514;52.164;5.282;2023-08-21T06:09:36;4.72;;;2.30;;
70148;SDS011;57514;52.164;5.282;2023-08-21T06:12:07;7.05;;;2.20;;
70148;SDS011;57514;52.164;5.282;2023-08-21T06:14:36;6.40;;;2.25;;
70148;SDS011;57514;52.164;5.282;2023-08-21T06:17:04;8.57;;;2.30;;
70148;SDS011;57514;52.164;5.282;2023-08-21T06:19:32;6.72;;;2.42;;
70148;SDS011;57514;52.164;5.282;2023-08-21T06:21:59;6.20;;;2.55;;
70148;SDS011;57514;52.164;5.282;2023-08-21T06:24:26;6.20;;;2.00;;
70148;SDS011;57514;52.164;5.282;2023-08-21T06:27:01;5.03;;;2.15;;
70148;SDS011;57514;52.164;5.282;2023-08-21T06:29:31;7.05;;;2.53;;
70148;SDS011;57514;52.164;5.282;2023-08-21T06:31:59;7.03;;;2.10;;
70148;SDS011;57514;52.164;5.282;2023-08-21T06:34:26;5.90;;;2.35;;
70148;SDS011;57514;52.164;5.282;2023-08-21T06:36:54;7.13;;;2.40;;
70148;SDS011;57514;52.164;5.282;2023-08-21T06:39:22;5.18;;;2.22;;
70148;SDS011;57514;52.164;5.282;2023-08-21T06:41:49;6.30;;;2.20;;
70148;SDS011;57514;52.164;5.282;2023-08-21T06:44:17;6.35;;;2.03;;
70148;SDS011;57514;52.164;5.282;2023-08-21T06:46:45;5.75;;;2.20;;
70148;SDS011;57514;52.164;5.282;2023-08-21T06:49:12;9.65;;;2.78;;
70148;SDS011;57514;52.164;5.282;2023-08-21T06:51:40;8.20;;;2.40;;
70148;SDS011;57514;52.164;5.282;2023-08-21T06:54:07;6.30;;;2.50;;
70148;SDS011;57514;52.164;5.282;2023-08-21T06:56:34;8.98;;;2.30;;
70148;SDS011;57514;52.164;5.282;2023-08-21T06:59:02;6.72;;;2.38;;
70148;SDS011;57514;52.164;5.282;2023-08-21T07:01:31;6.28;;;2.33;;
70148;SDS011;57514;52.164;5.282;2023-08-21T07:03:58;9.07;;;2.47;;
70148;SDS011;57514;52.164;5.282;2023-08-21T07:06:29;8.10;;;2.90;;
70148;SDS011;57514;52.164;5.282;2023-08-21T07:08:57;6.18;;;2.13;;
70148;SDS011;57514;52.164;5.282;2023-08-21T07:11:24;6.55;;;2.00;;
70148;SDS011;57514;52.164;5.282;2023-08-21T07:13:52;6.90;;;1.90;;
70148;SDS011;57514;52.164;5.282;2023-08-21T07:16:19;8.35;;;2.00;;
70148;SDS011;57514;52.164;5.282;2023-08-21T07:18:46;6.63;;;2.15;;
70148;SDS011;57514;52.164;5.282;2023-08-21T07:21:14;6.93;;;2.10;;
70148;SDS011;57514;52.164;5.282;2023-08-21T07:23:58;6.13;;;2.13;;
70148;SDS011;57514;52.164;5.282;2023-08-21T07:26:26;7.22;;;1.80;;
70148;SDS011;57514;52.164;5.282;2023-08-21T07:28:54;6.88;;;1.90;;
70148;SDS011;57514;52.164;5.282;2023-08-21T07:31:22;6.97;;;1.65;;
70148;SDS011;57514;52.164;5.282;2023-08-21T07:33:49;6.22;;;1.50;;
70148;SDS011;57514;52.164;5.282;2023-08-21T07:36:17;8.13;;;2.03;;
70148;SDS011;57514;52.164;5.282;2023-08-21T07:38:44;7.82;;;1.80;;
70148;SDS011;57514;52.164;5.282;2023-08-21T07:41:12;7.38;;;1.70;;
70148;SDS011;57514;52.164;5.282;2023-08-21T07:43:40;6.50;;;2.33;;
70148;SDS011;57514;52.164;5.282;2023-08-21T07:46:08;8.18;;;1.95;;
70148;SDS011;57514;52.164;5.282;2023-08-21T07:48:42;6.75;;;1.70;;
70148;SDS011;57514;52.164;5.282;2023-08-21T07:51:09;6.78;;;1.80;;
70148;SDS011;57514;52.164;5.282;2023-08-21T07:53:37;7.85;;;1.73;;
70148;SDS011;57514;52.164;5.282;2023-08-21T07:56:04;5.53;;;1.77;;
70148;SDS011;57514;52.164;5.282;2023-08-21T07:58:32;7.93;;;1.95;;
70148;SDS011;57514;52.164;5.282;2023-08-21T08:00:59;6.88;;;1.55;;
70148;SDS011;57514;52.164;5.282;2023-08-21T08:03:31;8.02;;;1.80;;
70148;SDS011;57514;52.164;5.282;2023-08-21T08:05:59;5.78;;;1.52;;
70148;SDS011;57514;52.164;5.282;2023-08-21T08:08:26;7.18;;;1.80;;
70148;SDS011;57514;52.164;5.282;2023-08-21T08:10:53;5.97;;;1.67;;
70148;SDS011;57514;52.164;5.282;2023-08-21T08:13:20;7.35;;;1.40;;
70148;SDS011;57514;52.164;5.282;2023-08-21T08:15:47;6.80;;;1.60;;
70148;SDS011;57514;52.164;5.282;2023-08-21T08:18:15;5.65;;;1.40;;
70148;SDS011;57514;52.164;5.282;2023-08-21T08:20:42;6.55;;;1.50;;
70148;SDS011;57514;52.164;5.282;2023-08-21T08:23:10;6.40;;;1.45;;
70148;SDS011;57514;52.164;5.282;2023-08-21T08:25:37;6.28;;;1.52;;
70148;SDS011;57514;52.164;5.282;2023-08-21T08:28:05;8.50;;;1.90;;
70148;SDS011;57514;52.164;5.282;2023-08-21T08:30:33;5.22;;;1.63;;
70148;SDS011;57514;52.164;5.282;2023-08-21T08:33:00;8.50;;;2.08;;
70148;SDS011;57514;52.164;5.282;2023-08-21T08:35:27;5.40;;;1.40;;
70148;SDS011;57514;52.164;5.282;2023-08-21T08:37:54;8.27;;;1.55;;
70148;SDS011;57514;52.164;5.282;2023-08-21T08:40:21;8.70;;;1.83;;
70148;SDS011;57514;52.164;5.282;2023-08-21T08:42:48;7.22;;;1.80;;
70148;SDS011;57514;52.164;5.282;2023-08-21T08:45:16;8.18;;;1.70;;
70148;SDS011;57514;52.164;5.282;2023-08-21T08:47:54;9.20;;;1.80;;
70148;SDS011;57514;52.164;5.282;2023-08-21T08:50:22;4.60;;;1.48;;
70148;SDS011;57514;52.164;5.282;2023-08-21T08:52:50;7.32;;;1.90;;
70148;SDS011;57514;52.164;5.282;2023-08-21T08:55:20;7.03;;;1.90;;
70148;SDS011;57514;52.164;5.282;2023-08-21T08:57:48;6.35;;;1.70;;
70148;SDS011;57514;52.164;5.282;2023-08-21T09:00:15;5.93;;;1.88;;
70148;SDS011;57514;52.164;5.282;2023-08-21T09:02:42;6.90;;;1.80;;
70148;SDS011;57514;52.164;5.282;2023-08-21T09:05:10;8.52;;;1.67;;
70148;SDS011;57514;52.164;5.282;2023-08-21T09:07:37;8.32;;;1.65;;
70148;SDS011;57514;52.164;5.282;2023-08-21T09:10:04;10.05;;;2.22;;
70148;SDS011;57514;52.164;5.282;2023-08-21T09:12:32;6.82;;;1.80;;
70148;SDS011;57514;52.164;5.282;2023-08-21T09:14:59;7.38;;;1.63;;
70148;SDS011;57514;52.164;5.282;2023-08-21T09:17:26;8.23;;;1.75;;
70148;SDS011;57514;52.164;5.282;2023-08-21T09:19:54;5.93;;;1.48;;
70148;SDS011;57514;52.164;5.282;2023-08-21T09:22:22;5.32;;;1.50;;
70148;SDS011;57514;52.164;5.282;2023-08-21T09:25:02;5.50;;;1.63;;
70148;SDS011;57514;52.164;5.282;2023-08-21T09:27:33;6.60;;;1.38;;
70148;SDS011;57514;52.164;5.282;2023-08-21T09:30:03;7.88;;;1.77;;
70148;SDS011;57514;52.164;5.282;2023-08-21T09:35:32;6.43;;;1.70;;
70148;SDS011;57514;52.164;5.282;2023-08-21T09:37:59;6.68;;;1.52;;
70148;SDS011;57514;52.164;5.282;2023-08-21T09:40:27;6.22;;;2.35;;
70148;SDS011;57514;52.164;5.282;2023-08-21T09:42:55;8.48;;;1.80;;
70148;SDS011;57514;52.164;5.282;2023-08-21T09:45:23;5.45;;;1.50;;
70148;SDS011;57514;52.164;5.282;2023-08-21T09:47:51;8.65;;;1.58;;
70148;SDS011;57514;52.164;5.282;2023-08-21T09:50:21;7.65;;;1.63;;
70148;SDS011;57514;52.164;5.282;2023-08-21T09:52:49;6.45;;;1.67;;
70148;SDS011;57514;52.164;5.282;2023-08-21T09:55:17;6.45;;;1.50;;
70148;SDS011;57514;52.164;5.282;2023-08-21T09:57:44;6.25;;;1.77;;
70148;SDS011;57514;52.164;5.282;2023-08-21T10:00:14;6.03;;;1.60;;
70148;SDS011;57514;52.164;5.282;2023-08-21T10:02:50;7.32;;;1.60;;
70148;SDS011;57514;52.164;5.282;2023-08-21T10:05:17;4.93;;;1.55;;
70148;SDS011;57514;52.164;5.282;2023-08-21T10:07:46;4.38;;;1.30;;
70148;SDS011;57514;52.164;5.282;2023-08-21T10:10:16;6.28;;;1.42;;
70148;SDS011;57514;52.164;5.282;2023-08-21T10:12:44;5.55;;;1.50;;
70148;SDS011;57514;52.164;5.282;2023-08-21T10:15:11;4.05;;;1.27;;
70148;SDS011;57514;52.164;5.282;2023-08-21T10:17:38;6.07;;;1.50;;
70148;SDS011;57514;52.164;5.282;2023-08-21T10:20:07;10.07;;;1.42;;
70148;SDS011;57514;52.164;5.282;2023-08-21T10:22:45;6.63;;;1.63;;
70148;SDS011;57514;52.164;5.282;2023-08-21T10:25:15;4.75;;;1.70;;
70148;SDS011;57514;52.164;5.282;2023-08-21T10:27:43;4.90;;;1.13;;
70148;SDS011;57514;52.164;5.282;2023-08-21T10:30:12;6.95;;;1.60;;
70148;SDS011;57514;52.164;5.282;2023-08-21T10:32:47;6.72;;;1.63;;
70148;SDS011;57514;52.164;5.282;2023-08-21T10:35:17;5.80;;;1.42;;
70148;SDS011;57514;52.164;5.282;2023-08-21T10:40:37;5.80;;;1.42;;
70148;SDS011;57514;52.164;5.282;2023-08-21T10:43:36;6.40;;;1.58;;
70148;SDS011;57514;52.164;5.282;2023-08-21T10:46:05;5.00;;;1.38;;
70148;SDS011;57514;52.164;5.282;2023-08-21T10:48:32;6.28;;;1.67;;
70148;SDS011;57514;52.164;5.282;2023-08-21T10:51:00;6.97;;;1.83;;
70148;SDS011;57514;52.164;5.282;2023-08-21T10:53:30;6.65;;;1.55;;
70148;SDS011;57514;52.164;5.282;2023-08-21T10:56:02;5.40;;;1.70;;
70148;SDS011;57514;52.164;5.282;2023-08-21T10:58:42;5.47;;;1.27;;
70148;SDS011;57514;52.164;5.282;2023-08-21T11:01:14;5.68;;;1.52;;
70148;SDS011;57514;52.164;5.282;2023-08-21T11:03:45;6.10;;;1.30;;
70148;SDS011;57514;52.164;5.282;2023-08-21T11:06:18;4.75;;;1.13;;
70148;SDS011;57514;52.164;5.282;2023-08-21T11:08:45;4.05;;;1.27;;
70148;SDS011;57514;52.164;5.282;2023-08-21T11:11:12;3.65;;;1.10;;
70148;SDS011;57514;52.164;5.282;2023-08-21T11:13:40;5.18;;;1.20;;
70148;SDS011;57514;52.164;5.282;2023-08-21T11:16:07;4.63;;;1.13;;
70148;SDS011;57514;52.164;5.282;2023-08-21T11:18:36;4.05;;;1.13;;
70148;SDS011;57514;52.164;5.282;2023-08-21T11:21:08;5.97;;;1.52;;
70148;SDS011;57514;52.164;5.282;2023-08-21T11:23:37;5.70;;;1.40;;
70148;SDS011;57514;52.164;5.282;2023-08-21T11:26:05;5.38;;;1.20;;
70148;SDS011;57514;52.164;5.282;2023-08-21T11:28:46;5.47;;;1.30;;
70148;SDS011;57514;52.164;5.282;2023-08-21T11:31:15;4.35;;;1.23;;
70148;SDS011;57514;52.164;5.282;2023-08-21T11:33:50;3.97;;;1.30;;
70148;SDS011;57514;52.164;5.282;2023-08-21T11:36:17;5.00;;;1.35;;
70148;SDS011;57514;52.164;5.282;2023-08-21T11:38:57;5.32;;;1.13;;
70148;SDS011;57514;52.164;5.282;2023-08-21T11:41:29;5.18;;;1.45;;
70148;SDS011;57514;52.164;5.282;2023-08-21T11:44:02;4.95;;;1.30;;
70148;SDS011;57514;52.164;5.282;2023-08-21T11:46:34;3.92;;;1.50;;
70148;SDS011;57514;52.164;5.282;2023-08-21T11:49:02;6.30;;;1.30;;
70148;SDS011;57514;52.164;5.282;2023-08-21T11:51:29;3.88;;;1.58;;
70148;SDS011;57514;52.164;5.282;2023-08-21T11:53:56;4.70;;;1.27;;
70148;SDS011;57514;52.164;5.282;2023-08-21T11:56:27;7.20;;;1.50;;
70148;SDS011;57514;52.164;5.282;2023-08-21T11:58:55;4.53;;;1.30;;
70148;SDS011;57514;52.164;5.282;2023-08-21T12:01:21;5.63;;;1.38;;
70148;SDS011;57514;52.164;5.282;2023-08-21T12:03:49;6.07;;;1.58;;
70148;SDS011;57514;52.164;5.282;2023-08-21T12:06:22;5.93;;;1.50;;
70148;SDS011;57514;52.164;5.282;2023-08-21T12:08:50;6.72;;;1.55;;
70148;SDS011;57514;52.164;5.282;2023-08-21T12:11:17;3.72;;;1.30;;
70148;SDS011;57514;52.164;5.282;2023-08-21T12:13:44;3.25;;;1.20;;
70148;SDS011;57514;52.164;5.282;2023-08-21T12:16:11;7.20;;;1.70;;
70148;SDS011;57514;52.164;5.282;2023-08-21T12:18:38;4.13;;;1.10;;
70148;SDS011;57514;52.164;5.282;2023-08-21T12:21:05;4.88;;;0.95;;
70148;SDS011;57514;52.164;5.282;2023-08-21T12:23:34;4.20;;;1.05;;
70148;SDS011;57514;52.164;5.282;2023-08-21T12:26:01;5.13;;;1.20;;
70148;SDS011;57514;52.164;5.282;2023-08-21T12:28:28;4.30;;;1.10;;
70148;SDS011;57514;52.164;5.282;2023-08-21T12:30:55;3.47;;;1.17;;
70148;SDS011;57514;52.164;5.282;2023-08-21T12:33:22;3.35;;;1.10;;
70148;SDS011;57514;52.164;5.282;2023-08-21T12:35:50;5.03;;;1.10;;
70148;SDS011;57514;52.164;5.282;2023-08-21T12:38:17;3.88;;;1.23;;
70148;SDS011;57514;52.164;5.282;2023-08-21T12:40:44;4.65;;;1.00;;
70148;SDS011;57514;52.164;5.282;2023-08-21T12:43:11;4.05;;;1.30;;
70148;SDS011;57514;52.164;5.282;2023-08-21T12:45:38;6.07;;;1.25;;
70148;SDS011;57514;52.164;5.282;2023-08-21T12:48:06;5.68;;;1.40;;
70148;SDS011;57514;52.164;5.282;2023-08-21T12:50:33;5.57;;;1.52;;
70148;SDS011;57514;52.164;5.282;2023-08-21T12:53:00;7.15;;;1.90;;
70148;SDS011;57514;52.164;5.282;2023-08-21T12:55:36;5.22;;;1.30;;
70148;SDS011;57514;52.164;5.282;2023-08-21T12:58:03;6.25;;;1.60;;
70148;SDS011;57514;52.164;5.282;2023-08-21T13:00:31;7.50;;;1.75;;
70148;SDS011;57514;52.164;5.282;2023-08-21T13:03:01;5.63;;;1.60;;
70148;SDS011;57514;52.164;5.282;2023-08-21T13:05:30;5.43;;;1.70;;
70148;SDS011;57514;52.164;5.282;2023-08-21T13:07:57;6.93;;;1.50;;
70148;SDS011;57514;52.164;5.282;2023-08-21T13:10:24;3.15;;;1.30;;
70148;SDS011;57514;52.164;5.282;2023-08-21T13:12:51;4.90;;;1.58;;
70148;SDS011;57514;52.164;5.282;2023-08-21T13:15:18;6.00;;;1.48;;
70148;SDS011;57514;52.164;5.282;2023-08-21T13:17:45;6.13;;;1.60;;
70148;SDS011;57514;52.164;5.282;2023-08-21T13:20:12;4.05;;;1.20;;
70148;SDS011;57514;52.164;5.282;2023-08-21T13:22:49;4.45;;;1.20;;
70148;SDS011;57514;52.164;5.282;2023-08-21T13:25:18;6.32;;;1.30;;
70148;SDS011;57514;52.164;5.282;2023-08-21T13:27:46;4.30;;;1.20;;
70148;SDS011;57514;52.164;5.282;2023-08-21T13:30:13;5.63;;;1.13;;
70148;SDS011;57514;52.164;5.282;2023-08-21T13:32:40;6.00;;;1.38;;
70148;SDS011;57514;52.164;5.282;2023-08-21T13:35:08;6.47;;;1.60;;
70148;SDS011;57514;52.164;5.282;2023-08-21T13:37:38;5.60;;;1.55;;
70148;SDS011;57514;52.164;5.282;2023-08-21T13:40:06;5.93;;;1.52;;
70148;SDS011;57514;52.164;5.282;2023-08-21T13:42:39;4.10;;;1.30;;
70148;SDS011;57514;52.164;5.282;2023-08-21T13:45:12;5.03;;;1.50;;
70148;SDS011;57514;52.164;5.282;2023-08-21T13:47:40;5.55;;;1.25;;
70148;SDS011;57514;52.164;5.282;2023-08-21T13:50:10;6.10;;;1.30;;
70148;SDS011;57514;52.164;5.282;2023-08-21T13:52:37;5.57;;;1.25;;
70148;SDS011;57514;52.164;5.282;2023-08-21T13:55:06;7.93;;;1.30;;
70148;SDS011;57514;52.164;5.282;2023-08-21T13:57:34;6.30;;;1.50;;
70148;SDS011;57514;52.164;5.282;2023-08-21T14:00:03;4.78;;;1.52;;
70148;SDS011;57514;52.164;5.282;2023-08-21T14:02:34;4.32;;;1.38;;
70148;SDS011;57514;52.164;5.282;2023-08-21T14:05:01;5.75;;;1.52;;
70148;SDS011;57514;52.164;5.282;2023-08-21T14:07:32;3.50;;;1.23;;
70148;SDS011;57514;52.164;5.282;2023-08-21T14:09:59;5.97;;;1.30;;
70148;SDS011;57514;52.164;5.282;2023-08-21T14:12:29;5.35;;;1.13;;
70148;SDS011;57514;52.164;5.282;2023-08-21T14:14:56;3.97;;;1.38;;
70148;SDS011;57514;52.164;5.282;2023-08-21T14:17:24;5.10;;;1.60;;
70148;SDS011;57514;52.164;5.282;2023-08-21T14:19:51;6.38;;;1.33;;
70148;SDS011;57514;52.164;5.282;2023-08-21T14:22:18;4.15;;;1.42;;
70148;SDS011;57514;52.164;5.282;2023-08-21T14:24:45;5.93;;;1.63;;
70148;SDS011;57514;52.164;5.282;2023-08-21T14:27:12;6.28;;;1.38;;
70148;SDS011;57514;52.164;5.282;2023-08-21T14:29:39;5.93;;;1.60;;
70148;SDS011;57514;52.164;5.282;2023-08-21T14:32:08;4.47;;;1.20;;
70148;SDS011;57514;52.164;5.282;2023-08-21T14:34:36;4.40;;;1.30;;
70148;SDS011;57514;52.164;5.282;2023-08-21T14:37:03;4.07;;;1.60;;
70148;SDS011;57514;52.164;5.282;2023-08-21T14:39:31;5.40;;;1.30;;
70148;SDS011;57514;52.164;5.282;2023-08-21T14:41:59;5.43;;;1.30;;
70148;SDS011;57514;52.164;5.282;2023-08-21T14:44:27;3.78;;;1.17;;
70148;SDS011;57514;52.164;5.282;2023-08-21T14:46:55;6.60;;;1.50;;
70148;SDS011;57514;52.164;5.282;2023-08-21T14:49:27;4.93;;;1.50;;
70148;SDS011;57514;52.164;5.282;2023-08-21T14:51:54;4.93;;;1.42;;
70148;SDS011;57514;52.164;5.282;2023-08-21T14:54:21;5.57;;;1.52;;
70148;SDS011;57514;52.164;5.282;2023-08-21T14:56:48;3.25;;;1.17;;
70148;SDS011;57514;52.164;5.282;2023-08-21T14:59:16;4.85;;;1.33;;
70148;SDS011;57514;52.164;5.282;2023-08-21T15:01:43;4.97;;;1.40;;
70148;SDS011;57514;52.164;5.282;2023-08-21T15:04:10;6.80;;;1.45;;
70148;SDS011;57514;52.164;5.282;2023-08-21T15:06:38;4.72;;;1.40;;